地図

経路データ

SID SEASON NUMBER BASIN SUBBASIN NAME ISO_TIME NATURE LAT LON WMO_WIND WMO_PRES WMO_AGENCY TRACK_TYPE DIST2LAND LANDFALL IFLAG USA_AGENCY USA_ATCF_ID USA_LAT USA_LON USA_RECORD USA_STATUS USA_WIND USA_PRES USA_SSHS USA_R34_NE USA_R34_SE USA_R34_SW USA_R34_NW USA_R50_NE USA_R50_SE USA_R50_SW USA_R50_NW USA_R64_NE USA_R64_SE USA_R64_SW USA_R64_NW USA_POCI USA_ROCI USA_RMW USA_EYE TOKYO_LAT TOKYO_LON TOKYO_GRADE TOKYO_WIND TOKYO_PRES TOKYO_R50_DIR TOKYO_R50_LONG TOKYO_R50_SHORT TOKYO_R30_DIR TOKYO_R30_LONG TOKYO_R30_SHORT TOKYO_LAND CMA_LAT CMA_LON CMA_CAT CMA_WIND CMA_PRES HKO_LAT HKO_LON HKO_CAT HKO_WIND HKO_PRES NEWDELHI_LAT NEWDELHI_LON NEWDELHI_GRADE NEWDELHI_WIND NEWDELHI_PRES NEWDELHI_CI NEWDELHI_DP NEWDELHI_POCI REUNION_LAT REUNION_LON REUNION_TYPE REUNION_WIND REUNION_PRES REUNION_TNUM REUNION_CI REUNION_RMW REUNION_R34_NE REUNION_R34_SE REUNION_R34_SW REUNION_R34_NW REUNION_R50_NE REUNION_R50_SE REUNION_R50_SW REUNION_R50_NW REUNION_R64_NE REUNION_R64_SE REUNION_R64_SW REUNION_R64_NW BOM_LAT BOM_LON BOM_TYPE BOM_WIND BOM_PRES BOM_TNUM BOM_CI BOM_RMW BOM_R34_NE BOM_R34_SE BOM_R34_SW BOM_R34_NW BOM_R50_NE BOM_R50_SE BOM_R50_SW BOM_R50_NW BOM_R64_NE BOM_R64_SE BOM_R64_SW BOM_R64_NW BOM_ROCI BOM_POCI BOM_EYE BOM_POS_METHOD BOM_PRES_METHOD NADI_LAT NADI_LON NADI_CAT NADI_WIND NADI_PRES WELLINGTON_LAT WELLINGTON_LON WELLINGTON_WIND WELLINGTON_PRES DS824_LAT DS824_LON DS824_STAGE DS824_WIND DS824_PRES TD9636_LAT TD9636_LON TD9636_STAGE TD9636_WIND TD9636_PRES TD9635_LAT TD9635_LON TD9635_WIND TD9635_PRES TD9635_ROCI NEUMANN_LAT NEUMANN_LON NEUMANN_CLASS NEUMANN_WIND NEUMANN_PRES MLC_LAT MLC_LON MLC_CLASS MLC_WIND MLC_PRES USA_GUST BOM_GUST BOM_GUST_PER REUNION_GUST REUNION_GUST_PER USA_SEAHGT USA_SEARAD_NE USA_SEARAD_SE USA_SEARAD_SW USA_SEARAD_NW STORM_SPEED STORM_DIR
1948138N10138 1948 31 WP MM LANA 1948-05-16 12:00:00 TS 10.0000 138.000 main 1228 1228 O________OOO__ jtwc_wp WP021948 10.0000 138.000 35 0 10.0000 138.000 TC 35 10.0000 138.000 2 35 10.0000 138.000 35 999 360 11 49
1948138N10138 1948 31 WP MM LANA 1948-05-16 15:00:00 TS 10.3511 138.405 main 1281 1281 P________PPP__ WP021948 10.3351 138.395 45 0 10.3351 138.395 TC 45 10.3990 138.433 2 43 10.3351 138.395 45 994 330 11 48
1948138N10138 1948 31 WP MM LANA 1948-05-16 18:00:00 TS 10.7220 138.813 main 1325 1325 O________OPO__ jtwc_wp WP021948 10.7000 138.800 55 0 10.7000 138.800 TC 55 10.7881 138.854 2 52 10.7000 138.800 55 990 300 11 46
1948138N10138 1948 31 WP MM LANA 1948-05-16 21:00:00 TS 11.1202 139.223 main 1380 1380 P________PPP__ WP021948 11.1075 139.215 62 0 11.1075 139.215 TC 62 11.1582 139.247 2 61 11.1075 139.215 62 986 300 11 45
1948138N10138 1948 31 WP MM LANA 1948-05-17 00:00:00 TS 11.5000 139.600 main 1436 1436 O________OOO__ jtwc_wp WP021948 11.5000 139.600 70 1 11.5000 139.600 TC 70 11.5000 139.600 3 70 11.5000 139.600 70 982 300 10 45
1948138N10138 1948 31 WP MM LANA 1948-05-17 03:00:00 TS 11.8135 139.923 main 1479 1479 P________PPP__ WP021948 11.8150 139.930 75 1 11.8150 139.930 TC 75 11.8091 139.902 3 72 11.8150 139.930 75 980 300 8 44
1948138N10138 1948 31 WP MM LANA 1948-05-17 06:00:00 TS 12.0999 140.190 main 1521 1521 O________OPO__ jtwc_wp WP021948 12.1000 140.200 80 1 12.1000 140.200 TC 80 12.0997 140.161 3 75 12.1000 140.200 80 978 300 8 39
1948138N10138 1948 31 WP MM LANA 1948-05-17 09:00:00 TS 12.3976 140.409 main 1560 1560 P________PPP__ WP021948 12.3999 140.415 80 1 12.3999 140.415 TC 80 12.3904 140.389 3 77 12.3999 140.415 80 976 300 7 34
1948138N10138 1948 31 WP MM LANA 1948-05-17 12:00:00 TS 12.7000 140.600 main 1599 1599 O________OOO__ jtwc_wp WP021948 12.7000 140.600 80 1 12.7000 140.600 TC 80 12.7000 140.600 4 80 12.7000 140.600 80 975 300 7 33
1948138N10138 1948 31 WP MM LANA 1948-05-17 15:00:00 TS 12.9894 140.805 main 1637 1637 P________PPP__ WP021948 12.9775 140.800 80 1 12.9775 140.800 TC 80 13.0250 140.819 4 78 12.9775 140.800 80 975 330 7 33
1948138N10138 1948 31 WP MM LANA 1948-05-17 18:00:00 TS 13.3187 141.006 main 1673 1673 O________OPO__ jtwc_wp WP021948 13.3000 141.000 80 1 13.3000 141.000 TC 80 13.3750 141.023 4 77 13.3000 141.000 80 975 360 8 27
1948138N10138 1948 31 WP MM LANA 1948-05-17 21:00:00 TS 13.7306 141.198 main 1700 1700 P________PPP__ WP021948 13.7200 141.193 77 1 13.7200 141.193 TC 77 13.7625 141.216 4 76 13.7200 141.193 77 976 330 10 24
1948138N10138 1948 31 WP MM LANA 1948-05-18 00:00:00 TS 14.2000 141.400 main 1730 1730 O________OOO__ jtwc_wp WP021948 14.2000 141.400 75 1 14.2000 141.400 TC 75 14.2000 141.400 4 75 14.2000 141.400 75 977 300 10 25
1948138N10138 1948 31 WP MM LANA 1948-05-18 03:00:00 TS 14.6760 141.645 main 1762 1762 P________PPP__ WP021948 14.6776 141.665 70 1 14.6776 141.665 TC 70 14.6713 141.587 4 72 14.6776 141.665 70 978 300 11 24
1948138N10138 1948 31 WP MM LANA 1948-05-18 06:00:00 TS 15.1988 141.866 main 1803 1803 O________OPO__ jtwc_wp WP021948 15.2000 141.900 65 1 15.2000 141.900 TC 65 15.1951 141.765 4 70 15.2000 141.900 65 979 300 11 18
1948138N10138 1948 31 WP MM LANA 1948-05-18 09:00:00 TS 15.7591 142.001 main 1825 1825 P________PPP__ WP021948 15.7550 142.023 65 1 15.7550 142.023 TC 65 15.7713 141.937 4 67 15.7550 142.023 65 980 300 12 11
1948138N10138 1948 31 WP MM LANA 1948-05-18 12:00:00 TS 16.4000 142.100 main 1849 1849 O________OOO__ jtwc_wp WP021948 16.4000 142.100 65 1 16.4000 142.100 TC 65 16.4000 142.100 4 65 16.4000 142.100 65 981 300 14 8
1948138N10138 1948 31 WP MM LANA 1948-05-18 15:00:00 TS 17.1681 142.207 main 1881 1848 P________PPP__ WP021948 17.1925 142.185 65 1 17.1925 142.185 TC 65 17.0950 142.273 4 66 17.1925 142.185 65 980 300 16 8
1948138N10138 1948 31 WP MM LANA 1948-05-18 18:00:00 TS 17.9588 142.334 main 1838 1782 O________OPO__ jtwc_wp WP021948 18.0000 142.300 65 1 18.0000 142.300 TC 65 17.8351 142.437 4 67 18.0000 142.300 65 979 300 15 12
1948138N10138 1948 31 WP MM LANA 1948-05-18 21:00:00 TS 18.6557 142.526 main 1771 1716 P________PPP__ WP021948 18.6800 142.507 67 1 18.6800 142.507 TC 67 18.5826 142.582 4 68 18.6800 142.507 67 978 300 14 14
1948138N10138 1948 31 WP MM LANA 1948-05-19 00:00:00 TS 19.3000 142.700 main 1716 1658 O________OOO__ jtwc_wp WP021948 19.3000 142.700 70 1 19.3000 142.700 TC 70 19.3000 142.700 4 70 19.3000 142.700 70 977 300 13 10
1948138N10138 1948 31 WP MM LANA 1948-05-19 03:00:00 TS 19.9196 142.771 main 1658 1597 P________PPP__ WP021948 19.9075 142.773 70 1 19.9075 142.773 TC 70 19.9560 142.768 4 71 19.9075 142.773 70 975 300 12 5
1948138N10138 1948 31 WP MM LANA 1948-05-19 06:00:00 TS 20.5187 142.802 main 1597 1536 O________OPO__ jtwc_wp WP021948 20.5000 142.800 70 1 20.5000 142.800 TC 70 20.5747 142.809 4 72 20.5000 142.800 70 974 300 12 3
1948138N10138 1948 31 WP MM LANA 1948-05-19 09:00:00 TS 21.1309 142.843 main 1536 1480 P________PPP__ WP021948 21.1225 142.843 72 1 21.1225 142.843 TC 72 21.1560 142.846 4 73 21.1225 142.843 72 973 300 12 4
1948138N10138 1948 31 WP MM LANA 1948-05-19 12:00:00 TS 21.7000 142.900 main 1480 1445 O________OOO__ jtwc_wp WP021948 21.7000 142.900 75 1 21.7000 142.900 TC 75 21.7000 142.900 4 75 21.7000 142.900 75 972 300 11 7
1948138N10138 1948 31 WP MM LANA 1948-05-19 15:00:00 TS 22.1713 142.976 main 1435 1401 P________PPP__ WP021948 22.1650 142.985 72 1 22.1650 142.985 TC 72 22.1901 142.948 4 73 22.1650 142.985 72 971 300 9 11
1948138N10138 1948 31 WP MM LANA 1948-05-19 18:00:00 TS 22.6123 143.081 main 1401 1352 O________OPO__ jtwc_wp WP021948 22.6000 143.100 70 1 22.6000 143.100 TC 70 22.6491 143.026 4 72 22.6000 143.100 70 971 300 9 13
1948138N10138 1948 31 WP MM LANA 1948-05-19 21:00:00 TS 23.0851 143.195 main 1352 1305 P________PPP__ WP021948 23.0773 143.206 70 1 23.0773 143.206 TC 70 23.1085 143.165 4 71 23.0773 143.206 70 971 330 10 17
1948138N10138 1948 31 WP MM LANA 1948-05-20 00:00:00 TS 23.6000 143.400 main 1305 1259 O________OOO__ jtwc_wp WP021948 23.6000 143.400 70 1 23.6000 143.400 TC 70 23.6000 143.400 4 70 23.6000 143.400 70 972 360 12 25
1948138N10138 1948 31 WP MM LANA 1948-05-20 03:00:00 TS 24.1754 143.744 main 1249 1200 P________PPP__ WP021948 24.1849 143.740 65 1 24.1849 143.740 TC 65 24.1467 143.755 4 66 24.1849 143.740 65 976 360 14 32
1948138N10138 1948 31 WP MM LANA 1948-05-20 06:00:00 TS 24.7880 144.202 main 1200 1155 O________OPO__ jtwc_wp WP021948 24.8000 144.200 60 0 24.8000 144.200 TC 60 24.7400 144.211 4 62 24.8000 144.200 60 980 360 15 37
1948138N10138 1948 31 WP MM LANA 1948-05-20 09:00:00 TS 25.4014 144.748 main 1155 1119 P________PPP__ WP021948 25.4077 144.750 57 0 25.4077 144.750 TC 57 25.3633 144.736 4 58 25.4077 144.750 57 982 330 16 39
1948138N10138 1948 31 WP MM LANA 1948-05-20 12:00:00 TS 26.0000 145.300 main 1119 1088 O________OOO__ jtwc_wp WP021948 26.0000 145.300 55 0 26.0000 145.300 TC 55 26.0000 145.300 2 55 26.0000 145.300 55 985 300 15 37
1948138N10138 1948 31 WP MM LANA 1948-05-20 15:00:00 TS 26.5599 145.737 main 1078 1050 P________P_P__ WP021948 26.5599 145.737 52 0 26.5599 145.737 TC 52 2 26.5599 145.737 52 986 300 13 33
1948138N10138 1948 31 WP MM LANA 1948-05-20 18:00:00 TS 27.1000 146.100 main 1050 O________O_O__ jtwc_wp WP021948 27.1000 146.100 50 0 27.1000 146.100 TC 50 2 27.1000 146.100 50 988 300 13 31

デジタル台風データ・検索

IBTrACS Databaseについて

本データベースは、米国NOAAが公開する1842年以降の世界の熱帯低気圧のベストトラックデータアーカイブInternational Best Track Archive for Climate Stewardship (IBTrACS)を、ウェブで閲覧しやすい形式に変換したものです。

最終更新日:2021-12-06